createdAt,value
2023-04-17T00:02:11.232Z,19.05
2023-04-17T00:04:38.805Z,19.05
2023-04-17T00:07:06.586Z,19.05
2023-04-17T00:09:33.908Z,19.06
2023-04-17T00:12:01.470Z,19.05
2023-04-17T00:14:28.903Z,19.05
2023-04-17T00:16:56.129Z,19.04
2023-04-17T00:19:23.149Z,19.02
2023-04-17T00:21:50.195Z,19.02
2023-04-17T00:24:17.228Z,19.00
2023-04-17T00:26:46.682Z,19.03
2023-04-17T00:29:13.821Z,19.01
2023-04-17T00:31:41.023Z,19.00
2023-04-17T00:34:08.016Z,19.00
2023-04-17T00:36:34.921Z,19.00
2023-04-17T00:39:01.937Z,18.99
2023-04-17T00:41:28.947Z,18.99
2023-04-17T00:43:55.738Z,18.98
2023-04-17T00:46:22.787Z,18.96
2023-04-17T00:48:49.793Z,18.96
2023-04-17T00:51:16.848Z,18.96
2023-04-17T00:53:43.955Z,18.94
2023-04-17T00:56:11.112Z,18.94
2023-04-17T00:58:37.931Z,18.95
2023-04-17T01:01:05.725Z,18.92
2023-04-17T01:03:32.911Z,18.90
2023-04-17T01:05:59.937Z,18.89
2023-04-17T01:08:26.878Z,18.87
2023-04-17T01:10:56.121Z,18.86
2023-04-17T01:13:22.917Z,18.84
2023-04-17T01:15:49.693Z,18.82
2023-04-17T01:18:16.994Z,18.82
2023-04-17T01:20:43.791Z,18.79
2023-04-17T01:23:10.558Z,18.79
2023-04-17T01:25:37.338Z,18.75
2023-04-17T01:28:04.235Z,18.74
2023-04-17T01:30:31.304Z,18.72
2023-04-17T01:32:58.129Z,18.71
2023-04-17T01:35:27.232Z,18.72
2023-04-17T01:37:54.015Z,18.69
2023-04-17T01:40:20.881Z,18.72
2023-04-17T01:42:47.665Z,18.70
2023-04-17T01:45:14.415Z,18.67
2023-04-17T01:47:41.469Z,18.67
2023-04-17T01:50:09.436Z,18.66
2023-04-17T01:52:36.836Z,18.63
2023-04-17T01:55:09.492Z,18.68
2023-04-17T01:57:36.347Z,18.69
2023-04-17T02:00:09.554Z,18.64
2023-04-17T02:02:36.694Z,18.64
2023-04-17T02:05:04.194Z,18.63
2023-04-17T02:07:31.034Z,18.62
2023-04-17T02:09:57.757Z,18.61
2023-04-17T02:12:24.559Z,18.62
2023-04-17T02:14:51.404Z,18.60
2023-04-17T02:17:18.708Z,18.61
2023-04-17T02:19:45.526Z,18.60
2023-04-17T02:22:17.883Z,18.57
2023-04-17T02:24:44.807Z,18.58
2023-04-17T02:27:12.092Z,18.57
2023-04-17T02:29:38.901Z,18.55
2023-04-17T02:32:05.742Z,18.54
2023-04-17T02:34:32.487Z,18.53
2023-04-17T02:36:59.252Z,18.51
2023-04-17T02:39:27.559Z,18.50
2023-04-17T02:41:54.536Z,18.50
2023-04-17T02:44:21.488Z,18.47
2023-04-17T02:46:48.250Z,18.48
2023-04-17T02:49:15.100Z,18.48
2023-04-17T02:51:41.954Z,18.46
2023-04-17T02:54:08.810Z,18.45
2023-04-17T02:56:35.751Z,18.45
2023-04-17T02:59:02.612Z,18.43
2023-04-17T03:01:30.317Z,18.44
2023-04-17T03:03:57.470Z,18.40
2023-04-17T03:06:24.439Z,18.39
2023-04-17T03:08:51.952Z,18.39
2023-04-17T03:11:18.809Z,18.39
2023-04-17T03:13:45.932Z,18.39
2023-04-17T03:16:13.206Z,18.37
2023-04-17T03:18:41.654Z,18.37
2023-04-17T03:21:08.929Z,18.37
2023-04-17T03:23:36.460Z,18.36
2023-04-17T03:26:08.278Z,18.36
2023-04-17T03:28:35.237Z,18.37
2023-04-17T03:31:02.381Z,18.34
2023-04-17T03:33:30.544Z,18.32
2023-04-17T03:35:57.955Z,18.31
2023-04-17T03:38:24.889Z,18.31
2023-04-17T03:40:52.240Z,18.29
2023-04-17T03:43:19.270Z,18.29
2023-04-17T03:45:46.326Z,18.28
2023-04-17T03:48:13.436Z,18.28
2023-04-17T03:50:40.611Z,18.26
2023-04-17T03:53:07.830Z,18.27
2023-04-17T03:55:35.266Z,18.26
2023-04-17T03:58:02.175Z,18.25
2023-04-17T04:00:29.538Z,18.23
2023-04-17T04:02:56.570Z,18.23
2023-04-17T04:05:23.908Z,18.22
2023-04-17T04:07:50.913Z,18.23
2023-04-17T04:10:18.101Z,18.20
2023-04-17T04:12:45.446Z,18.19
2023-04-17T04:15:12.621Z,18.19
2023-04-17T04:17:40.154Z,18.20
2023-04-17T04:20:09.669Z,18.20
2023-04-17T04:22:36.534Z,18.23
2023-04-17T04:25:04.142Z,18.29
2023-04-17T04:27:34.424Z,18.34
2023-04-17T04:30:02.512Z,18.40
2023-04-17T04:32:30.080Z,18.44
2023-04-17T04:34:59.231Z,18.50
2023-04-17T04:37:30.387Z,18.55
2023-04-17T04:40:11.126Z,18.59
2023-04-17T04:42:42.786Z,18.64
2023-04-17T04:45:10.085Z,18.71
2023-04-17T04:47:37.368Z,18.74
2023-04-17T04:50:04.906Z,18.81
2023-04-17T04:52:32.586Z,18.84
2023-04-17T04:55:00.299Z,18.89
2023-04-17T04:57:27.714Z,18.95
2023-04-17T04:59:54.634Z,19.00
2023-04-17T05:02:22.706Z,19.05
2023-04-17T05:04:50.550Z,19.10
2023-04-17T05:07:19.585Z,19.16
2023-04-17T05:09:47.115Z,19.21
2023-04-17T05:12:14.556Z,19.27
2023-04-17T05:14:41.727Z,19.33
2023-04-17T05:17:09.181Z,19.39
2023-04-17T05:19:37.196Z,19.44
2023-04-17T05:22:04.647Z,19.50
2023-04-17T05:24:31.773Z,19.54
2023-04-17T05:26:58.769Z,19.60
2023-04-17T05:29:26.928Z,19.65
2023-04-17T05:31:54.494Z,19.70
2023-04-17T05:34:21.876Z,19.75
2023-04-17T05:36:49.944Z,19.82
2023-04-17T05:39:19.605Z,19.86
2023-04-17T05:41:46.940Z,19.91
2023-04-17T05:44:14.415Z,19.97
2023-04-17T05:46:41.853Z,20.01
2023-04-17T05:49:09.994Z,20.07
2023-04-17T05:51:38.084Z,20.13
2023-04-17T05:54:05.624Z,20.18
2023-04-17T05:56:33.514Z,20.23
2023-04-17T05:59:00.948Z,20.28
2023-04-17T06:01:30.772Z,20.33
2023-04-17T06:04:00.822Z,20.38
2023-04-17T06:06:30.720Z,20.42
2023-04-17T06:09:02.899Z,20.48
2023-04-17T06:11:32.036Z,20.53
2023-04-17T06:14:04.225Z,20.57
2023-04-17T06:16:37.466Z,20.61
2023-04-17T06:19:05.959Z,20.66
2023-04-17T06:21:33.246Z,20.69
2023-04-17T06:24:00.128Z,20.72
2023-04-17T06:26:26.962Z,20.75
2023-04-17T06:28:55.164Z,20.78
2023-04-17T06:31:23.396Z,20.82
2023-04-17T06:33:51.319Z,20.84
2023-04-17T06:36:18.206Z,20.87
2023-04-17T06:38:45.033Z,20.91
2023-04-17T06:41:11.967Z,20.95
2023-04-17T06:43:38.841Z,20.97
2023-04-17T06:46:06.537Z,20.99
2023-04-17T06:48:33.427Z,20.98
2023-04-17T06:51:00.321Z,20.98
2023-04-17T06:53:27.532Z,21.01
2023-04-17T06:55:54.838Z,21.04
2023-04-17T06:58:21.692Z,21.06
2023-04-17T07:00:48.666Z,21.08
2023-04-17T07:03:16.911Z,21.09
2023-04-17T07:05:44.724Z,21.11
2023-04-17T07:08:11.649Z,21.12
2023-04-17T07:10:38.482Z,21.14
2023-04-17T07:13:05.407Z,21.14
2023-04-17T07:15:32.403Z,21.15
2023-04-17T07:17:59.407Z,21.16
2023-04-17T07:20:26.481Z,21.14
2023-04-17T07:22:53.380Z,21.15
2023-04-17T07:25:20.346Z,21.19
2023-04-17T07:27:47.361Z,21.19
2023-04-17T07:30:14.382Z,21.21
2023-04-17T07:32:41.538Z,21.24
2023-04-17T07:35:08.888Z,21.27
2023-04-17T07:37:37.307Z,21.26
2023-04-17T07:40:06.891Z,21.28
2023-04-17T07:42:33.788Z,21.28
2023-04-17T07:45:00.737Z,21.28
2023-04-17T07:47:27.690Z,21.28
2023-04-17T07:49:54.671Z,21.27
2023-04-17T07:52:21.663Z,21.28
2023-04-17T07:54:48.601Z,21.27
2023-04-17T07:57:15.839Z,21.27
2023-04-17T07:59:42.854Z,21.28
2023-04-17T08:02:10.040Z,21.30
2023-04-17T08:04:38.129Z,21.30
2023-04-17T08:07:05.239Z,21.33
2023-04-17T08:09:32.176Z,21.36
2023-04-17T08:11:59.088Z,21.37
2023-04-17T08:14:26.023Z,21.38
2023-04-17T08:16:52.888Z,21.42
2023-04-17T08:19:19.897Z,21.43
2023-04-17T08:21:48.160Z,21.46
2023-04-17T08:24:17.818Z,21.47
2023-04-17T08:26:46.596Z,21.51
2023-04-17T08:29:14.405Z,21.53
2023-04-17T08:31:41.720Z,21.54
2023-04-17T08:34:14.239Z,21.55
2023-04-17T08:36:43.077Z,21.57
2023-04-17T08:39:12.921Z,21.58
2023-04-17T08:41:43.423Z,21.59
2023-04-17T08:44:10.545Z,21.60
2023-04-17T08:46:38.616Z,21.62
2023-04-17T08:49:05.848Z,21.61
2023-04-17T08:51:33.146Z,21.63
2023-04-17T08:54:00.096Z,21.62
2023-04-17T08:56:28.738Z,21.63
2023-04-17T08:58:55.600Z,21.62
2023-04-17T09:01:27.648Z,21.63
2023-04-17T09:03:54.980Z,21.62
2023-04-17T09:06:22.085Z,21.61
2023-04-17T09:08:52.409Z,21.61
2023-04-17T09:11:22.567Z,21.61
2023-04-17T09:13:49.913Z,21.60
2023-04-17T09:16:17.079Z,21.60
2023-04-17T09:18:46.458Z,21.58
2023-04-17T09:21:18.842Z,21.57
2023-04-17T09:23:48.549Z,21.58
2023-04-17T09:26:16.326Z,21.56
2023-04-17T09:29:00.655Z,21.58
2023-04-17T09:31:36.171Z,21.57
2023-04-17T09:34:04.775Z,21.56
2023-04-17T09:36:33.032Z,21.55
2023-04-17T09:39:01.353Z,21.54
2023-04-17T09:41:33.233Z,21.54
2023-04-17T09:44:02.400Z,21.52
2023-04-17T09:46:32.458Z,21.52
2023-04-17T09:49:02.349Z,21.51
2023-04-17T09:51:29.983Z,21.51
2023-04-17T09:54:01.501Z,21.47
2023-04-17T09:56:29.939Z,21.48
2023-04-17T09:58:57.899Z,21.46
2023-04-17T10:01:30.480Z,21.43
2023-04-17T10:03:58.397Z,21.42
2023-04-17T10:06:27.456Z,21.40
2023-04-17T10:08:56.987Z,21.40
2023-04-17T10:11:29.219Z,21.39
2023-04-17T10:14:03.443Z,21.38
2023-04-17T10:16:33.571Z,21.33
2023-04-17T10:19:03.727Z,21.29
2023-04-17T10:21:31.489Z,21.30
2023-04-17T10:23:59.716Z,21.37
2023-04-17T10:26:28.361Z,21.44
2023-04-17T10:28:56.205Z,21.40
2023-04-17T10:31:26.026Z,21.46
2023-04-17T10:33:54.617Z,21.44
2023-04-17T10:36:24.570Z,21.45
2023-04-17T10:38:51.562Z,21.43
2023-04-17T10:41:22.244Z,21.45
2023-04-17T10:43:49.556Z,21.46
2023-04-17T10:46:16.516Z,21.45
2023-04-17T10:48:46.603Z,21.48
2023-04-17T10:51:16.540Z,21.50
2023-04-17T10:53:46.926Z,21.49
2023-04-17T10:56:18.479Z,21.53
2023-04-17T10:58:48.602Z,21.51
2023-04-17T11:01:17.899Z,21.50
2023-04-17T11:03:45.358Z,21.49
2023-04-17T11:06:12.638Z,21.45
2023-04-17T11:08:39.879Z,21.50
2023-04-17T11:11:12.230Z,21.49
2023-04-17T11:13:42.341Z,21.51
2023-04-17T11:16:09.781Z,21.53
2023-04-17T11:18:38.076Z,21.53
2023-04-17T11:21:05.220Z,21.56
2023-04-17T11:23:34.470Z,21.58
2023-04-17T11:26:01.708Z,21.55
2023-04-17T11:28:29.420Z,21.55
2023-04-17T11:30:56.366Z,21.45
2023-04-17T11:33:26.590Z,21.44
2023-04-17T11:35:54.450Z,21.41
2023-04-17T11:38:22.575Z,21.38
2023-04-17T11:40:51.262Z,21.43
2023-04-17T11:43:19.000Z,21.46
2023-04-17T11:45:46.943Z,21.47
2023-04-17T11:48:15.248Z,21.41
2023-04-17T11:50:43.910Z,21.44
2023-04-17T11:53:13.486Z,21.41
2023-04-17T11:55:40.425Z,21.39
2023-04-17T11:58:08.625Z,21.43
2023-04-17T12:00:35.930Z,21.42
2023-04-17T12:03:03.625Z,21.33
2023-04-17T12:05:31.407Z,21.32
2023-04-17T12:08:01.899Z,21.36
2023-04-17T12:10:35.053Z,21.34
2023-04-17T12:13:01.987Z,21.35
2023-04-17T12:15:28.979Z,21.32
2023-04-17T12:17:55.989Z,21.34
2023-04-17T12:20:24.734Z,21.33
2023-04-17T12:22:53.103Z,21.27
2023-04-17T12:25:20.086Z,21.29
2023-04-17T12:27:49.229Z,21.28
2023-04-17T12:30:17.112Z,21.24
2023-04-17T12:32:49.075Z,21.19
2023-04-17T12:35:16.423Z,21.16
2023-04-17T12:37:48.616Z,21.11
2023-04-17T12:40:17.643Z,21.10
2023-04-17T12:42:49.287Z,21.06
2023-04-17T12:45:17.347Z,21.04
2023-04-17T12:47:44.611Z,21.06
2023-04-17T12:50:12.487Z,21.03
2023-04-17T12:52:39.914Z,21.01
2023-04-17T12:55:08.024Z,20.99
2023-04-17T12:57:36.093Z,20.99
2023-04-17T13:00:06.158Z,20.95
2023-04-17T13:02:35.448Z,20.96
2023-04-17T13:05:03.209Z,20.96
2023-04-17T13:07:30.644Z,20.98
2023-04-17T13:09:58.009Z,20.94
2023-04-17T13:12:25.330Z,20.90
2023-04-17T13:14:52.588Z,20.92
2023-04-17T13:17:21.335Z,20.86
2023-04-17T13:19:48.340Z,20.87
2023-04-17T13:22:16.419Z,20.85
2023-04-17T13:24:43.598Z,20.91
2023-04-17T13:27:10.868Z,20.94
2023-04-17T13:29:37.956Z,20.97
2023-04-17T13:32:07.450Z,21.01
2023-04-17T13:34:34.398Z,21.08
2023-04-17T13:37:01.372Z,21.09
2023-04-17T13:39:28.378Z,21.11
2023-04-17T13:41:57.697Z,21.15
2023-04-17T13:44:25.170Z,21.20
2023-04-17T13:46:52.923Z,21.23
2023-04-17T13:49:20.043Z,21.26
2023-04-17T13:51:47.185Z,21.42
2023-04-17T13:54:14.203Z,21.44
2023-04-17T13:56:41.238Z,21.46
2023-04-17T13:59:08.308Z,21.53
2023-04-17T14:01:40.773Z,21.58
2023-04-17T14:04:08.165Z,21.65
2023-04-17T14:06:38.622Z,21.69
2023-04-17T14:09:06.153Z,21.74
2023-04-17T14:11:33.100Z,21.76
2023-04-17T14:14:00.008Z,21.80
2023-04-17T14:16:28.146Z,21.85
2023-04-17T14:18:57.855Z,21.88
2023-04-17T14:21:29.451Z,21.91
2023-04-17T14:23:57.262Z,21.92
2023-04-17T14:26:24.229Z,21.95
2023-04-17T14:28:53.680Z,21.95
2023-04-17T14:31:27.331Z,21.99
2023-04-17T14:33:54.885Z,22.00
2023-04-17T14:36:21.911Z,22.02
2023-04-17T14:38:51.560Z,22.02
2023-04-17T14:41:25.144Z,22.03
2023-04-17T14:43:52.512Z,22.04
2023-04-17T14:46:19.508Z,22.06
2023-04-17T14:51:17.025Z,22.07
2023-04-17T14:53:44.202Z,22.07
2023-04-17T14:56:11.248Z,22.05
2023-04-17T14:58:38.319Z,22.05
2023-04-17T15:01:05.832Z,22.06
2023-04-17T15:03:32.841Z,22.06
2023-04-17T15:06:01.965Z,22.08
2023-04-17T15:08:31.398Z,22.08
2023-04-17T15:10:59.391Z,22.06
2023-04-17T15:13:27.075Z,22.10
2023-04-17T15:15:55.595Z,22.10
2023-04-17T15:18:22.899Z,22.12
2023-04-17T15:20:51.324Z,22.13
2023-04-17T15:23:19.316Z,22.12
2023-04-17T15:25:46.717Z,22.12
2023-04-17T15:28:13.714Z,22.14
2023-04-17T15:30:43.749Z,22.14
2023-04-17T15:33:10.936Z,22.16
2023-04-17T15:35:38.664Z,22.13
2023-04-17T15:38:06.662Z,22.13
2023-04-17T15:40:34.582Z,22.10
2023-04-17T15:43:02.428Z,22.11
2023-04-17T15:45:33.049Z,22.12
2023-04-17T15:48:01.674Z,22.14
2023-04-17T15:50:29.329Z,22.18
2023-04-17T15:52:56.921Z,22.20
2023-04-17T15:55:27.972Z,22.24
2023-04-17T15:57:55.312Z,22.27
2023-04-17T16:00:22.767Z,22.30
2023-04-17T16:02:50.971Z,22.33
2023-04-17T16:05:19.410Z,22.34
2023-04-17T16:07:47.399Z,22.34
2023-04-17T16:10:15.312Z,22.37
2023-04-17T16:12:43.938Z,22.39
2023-04-17T16:15:14.995Z,22.40
2023-04-17T16:17:42.519Z,22.42
2023-04-17T16:20:11.691Z,22.43
2023-04-17T16:22:39.185Z,22.43
2023-04-17T16:25:07.402Z,22.44
2023-04-17T16:27:34.885Z,22.44
2023-04-17T16:30:03.870Z,22.45
2023-04-17T16:32:32.312Z,22.45
2023-04-17T16:34:59.954Z,22.45
2023-04-17T16:37:27.624Z,22.46
2023-04-17T16:39:54.798Z,22.45
2023-04-17T16:42:25.387Z,22.46
2023-04-17T16:44:52.749Z,22.45
2023-04-17T16:47:20.169Z,22.45
2023-04-17T16:49:48.096Z,22.43
2023-04-17T16:52:16.748Z,22.43
2023-04-17T16:54:44.184Z,22.41
2023-04-17T16:57:13.880Z,22.41
2023-04-17T16:59:43.321Z,22.40
2023-04-17T17:02:10.765Z,22.37
2023-04-17T17:04:38.328Z,22.38
2023-04-17T17:07:06.601Z,22.37
2023-04-17T17:09:36.270Z,22.35
2023-04-17T17:12:04.066Z,22.34
2023-04-17T17:14:31.557Z,22.31
2023-04-17T17:16:59.307Z,22.32
2023-04-17T17:19:26.751Z,22.29
2023-04-17T17:21:55.640Z,22.27
2023-04-17T17:24:23.086Z,22.25
2023-04-17T17:26:50.507Z,22.23
2023-04-17T17:29:18.108Z,22.20
2023-04-17T17:31:45.370Z,22.17
2023-04-17T17:36:42.801Z,22.13
2023-04-17T17:39:10.427Z,22.13
2023-04-17T17:41:37.627Z,22.12
2023-04-17T17:44:04.913Z,22.08
2023-04-17T17:46:34.788Z,22.05
2023-04-17T17:49:02.195Z,22.02
2023-04-17T17:51:32.085Z,22.05
2023-04-17T17:53:59.229Z,22.06
2023-04-17T17:56:26.349Z,22.05
2023-04-17T17:58:53.471Z,22.05
2023-04-17T18:01:23.101Z,22.04
2023-04-17T18:03:51.893Z,22.04
2023-04-17T18:06:21.042Z,22.03
2023-04-17T18:08:48.271Z,22.01
2023-04-17T18:11:17.930Z,21.97
2023-04-17T18:13:45.308Z,22.00
2023-04-17T18:16:12.471Z,21.94
2023-04-17T18:18:39.540Z,21.93
2023-04-17T18:21:10.432Z,21.92
2023-04-17T18:23:37.713Z,21.92
2023-04-17T18:26:04.801Z,21.92
2023-04-17T18:28:33.059Z,21.90
2023-04-17T18:31:00.220Z,21.88
2023-04-17T18:33:29.421Z,21.91
2023-04-17T18:35:56.506Z,21.94
2023-04-17T18:38:23.387Z,21.98
2023-04-17T18:40:53.871Z,22.01
2023-04-17T18:43:21.043Z,22.02
2023-04-17T18:45:47.992Z,22.05
2023-04-17T18:48:14.988Z,22.07
2023-04-17T18:50:42.072Z,22.10
2023-04-17T18:53:09.130Z,22.12
2023-04-17T18:55:37.584Z,22.11
2023-04-17T18:58:07.345Z,22.11
2023-04-17T19:00:34.475Z,22.13
2023-04-17T19:03:01.578Z,22.13
2023-04-17T19:05:28.612Z,22.13
2023-04-17T19:07:55.701Z,22.14
2023-04-17T19:10:23.366Z,22.13
2023-04-17T19:12:50.335Z,22.13
2023-04-17T19:15:17.919Z,22.13
2023-04-17T19:17:44.854Z,22.12
2023-04-17T19:20:12.176Z,22.10
2023-04-17T19:22:39.119Z,22.09
2023-04-17T19:25:08.733Z,22.08
2023-04-17T19:27:35.873Z,22.08
2023-04-17T19:30:02.897Z,22.07
2023-04-17T19:32:31.533Z,22.06
2023-04-17T19:34:58.633Z,22.04
2023-04-17T19:37:25.626Z,22.02
2023-04-17T19:39:56.229Z,22.03
2023-04-17T19:42:23.695Z,22.02
2023-04-17T19:44:50.602Z,22.01
2023-04-17T19:47:17.650Z,22.01
2023-04-17T19:49:45.113Z,22.04
2023-04-17T19:52:12.264Z,21.99
2023-04-17T19:54:39.517Z,21.99
2023-04-17T19:57:06.496Z,21.98
2023-04-17T19:59:33.356Z,21.98
2023-04-17T20:02:02.588Z,21.97
2023-04-17T20:04:29.788Z,21.99
2023-04-17T20:06:56.916Z,22.02
2023-04-17T20:09:24.010Z,22.03
2023-04-17T20:11:50.889Z,22.04
2023-04-17T20:14:19.811Z,22.05
2023-04-17T20:16:48.956Z,22.07
2023-04-17T20:19:18.644Z,22.09
2023-04-17T20:21:47.203Z,22.13
2023-04-17T20:24:16.179Z,22.16
2023-04-17T20:26:45.903Z,22.17
2023-04-17T20:29:13.011Z,22.22
2023-04-17T20:31:40.311Z,22.23
2023-04-17T20:34:07.420Z,22.25
2023-04-17T20:36:34.287Z,22.26
2023-04-17T20:39:01.160Z,22.27
2023-04-17T20:41:28.666Z,22.27
2023-04-17T20:43:58.484Z,22.30
2023-04-17T20:46:26.305Z,22.29
2023-04-17T20:48:53.419Z,22.30
2023-04-17T20:51:23.435Z,22.30
2023-04-17T20:53:50.685Z,22.30
2023-04-17T20:56:17.947Z,22.32
2023-04-17T20:58:45.066Z,22.30
2023-04-17T21:01:12.051Z,22.30
2023-04-17T21:03:39.077Z,22.31
2023-04-17T21:06:06.208Z,22.29
2023-04-17T21:08:33.266Z,22.30
2023-04-17T21:11:00.862Z,22.30
2023-04-17T21:13:27.785Z,22.30
2023-04-17T21:15:54.783Z,22.29
2023-04-17T21:18:21.720Z,22.27
2023-04-17T21:20:48.755Z,22.29
2023-04-17T21:23:15.657Z,22.29
2023-04-17T21:25:42.619Z,22.28
2023-04-17T21:28:09.629Z,22.28
2023-04-17T21:30:38.836Z,22.27
2023-04-17T21:33:06.201Z,22.25
2023-04-17T21:35:33.203Z,22.23
2023-04-17T21:38:00.694Z,22.21
2023-04-17T21:40:33.129Z,22.18
2023-04-17T21:43:03.364Z,22.20
2023-04-17T21:45:31.550Z,22.18
2023-04-17T21:47:58.778Z,22.16
2023-04-17T21:50:26.008Z,22.16
2023-04-17T21:52:52.822Z,22.21
2023-04-17T21:55:20.069Z,22.18
2023-04-17T21:57:46.954Z,22.20
2023-04-17T22:00:14.659Z,22.18
2023-04-17T22:02:41.777Z,22.16
2023-04-17T22:05:08.920Z,22.14
2023-04-17T22:07:44.023Z,22.14
2023-04-17T22:10:18.546Z,22.15
2023-04-17T22:12:45.492Z,22.14
2023-04-17T22:15:12.772Z,22.12
2023-04-17T22:17:39.737Z,22.11
2023-04-17T22:20:07.541Z,22.11
2023-04-17T22:22:34.393Z,22.07
2023-04-17T22:25:01.404Z,22.08
2023-04-17T22:27:29.308Z,22.07
2023-04-17T22:29:56.586Z,22.04
2023-04-17T22:32:23.586Z,22.03
2023-04-17T22:34:50.451Z,21.99
2023-04-17T22:37:18.686Z,21.96
2023-04-17T22:39:45.824Z,21.96
2023-04-17T22:42:12.756Z,21.92
2023-04-17T22:44:39.655Z,21.93
2023-04-17T22:47:06.517Z,21.89
2023-04-17T22:49:38.241Z,21.87
2023-04-17T22:52:06.505Z,21.87
2023-04-17T22:54:33.902Z,21.85
2023-04-17T22:57:00.868Z,21.83
2023-04-17T22:59:27.758Z,21.80
2023-04-17T23:01:54.726Z,21.78
2023-04-17T23:04:22.748Z,21.80
2023-04-17T23:06:49.798Z,21.79
2023-04-17T23:09:16.829Z,21.78
2023-04-17T23:11:43.715Z,21.76
2023-04-17T23:14:11.590Z,21.76
2023-04-17T23:16:38.622Z,21.75
2023-04-17T23:19:05.589Z,21.71
2023-04-17T23:21:32.527Z,21.72
2023-04-17T23:23:59.501Z,21.68
2023-04-17T23:26:26.328Z,21.66
2023-04-17T23:28:53.151Z,21.59
2023-04-17T23:31:19.966Z,21.62
2023-04-17T23:33:47.001Z,21.61
2023-04-17T23:36:13.967Z,21.63
2023-04-17T23:38:40.895Z,21.60
2023-04-17T23:41:07.698Z,21.58
2023-04-17T23:43:34.586Z,21.53
2023-04-17T23:46:01.518Z,21.51
2023-04-17T23:48:28.493Z,21.49
2023-04-17T23:50:55.406Z,21.49
2023-04-17T23:53:22.283Z,21.47
2023-04-17T23:55:49.096Z,21.47
2023-04-17T23:58:15.965Z,21.44
